createdAt,value
2022-10-30T00:00:35.882Z,13.14
2022-10-30T00:03:02.908Z,13.13
2022-10-30T00:05:29.655Z,13.13
2022-10-30T00:07:57.266Z,13.10
2022-10-30T00:10:24.968Z,13.09
2022-10-30T00:12:51.592Z,13.07
2022-10-30T00:15:18.047Z,12.96
2022-10-30T00:17:44.380Z,13.07
2022-10-30T00:20:11.043Z,13.12
2022-10-30T00:22:37.565Z,13.13
2022-10-30T00:25:04.772Z,13.16
2022-10-30T00:27:31.385Z,13.21
2022-10-30T00:29:57.751Z,13.15
2022-10-30T00:32:24.281Z,13.20
2022-10-30T00:34:50.899Z,13.19
2022-10-30T00:37:17.284Z,13.19
2022-10-30T00:39:43.697Z,13.25
2022-10-30T00:42:14.704Z,13.25
2022-10-30T00:44:44.205Z,13.33
2022-10-30T00:47:31.783Z,13.32
2022-10-30T00:50:13.846Z,13.32
2022-10-30T00:52:48.009Z,13.19
2022-10-30T00:55:19.383Z,13.27
2022-10-30T00:57:47.094Z,13.25
2022-10-30T01:00:14.613Z,13.22
2022-10-30T01:02:43.990Z,13.11
2022-10-30T01:05:15.648Z,12.95
2022-10-30T01:07:42.029Z,12.93
2022-10-30T01:10:09.709Z,12.94
2022-10-30T01:12:36.586Z,12.88
2022-10-30T01:15:03.359Z,12.91
2022-10-30T01:17:41.790Z,12.81
2022-10-30T01:20:14.121Z,12.73
2022-10-30T01:22:59.631Z,12.67
2022-10-30T01:26:06.475Z,12.72
2022-10-30T01:28:49.983Z,12.79
2022-10-30T01:31:35.154Z,12.79
2022-10-30T01:34:15.792Z,12.68
2022-10-30T01:37:07.359Z,12.97
2022-10-30T01:39:37.145Z,12.79
2022-10-30T01:42:40.928Z,12.58
2022-10-30T01:45:07.971Z,12.67
2022-10-30T01:47:51.291Z,12.71
2022-10-30T01:50:37.783Z,12.72
2022-10-30T01:53:33.085Z,12.78
2022-10-30T01:56:17.679Z,12.75
2022-10-30T01:59:05.832Z,12.89
2022-10-30T02:01:35.508Z,12.87
2022-10-30T02:06:35.860Z,12.51
2022-10-30T02:09:02.249Z,12.49
2022-10-30T02:11:29.584Z,12.50
2022-10-30T02:13:58.581Z,12.62
2022-10-30T02:16:24.984Z,12.74
2022-10-30T02:18:51.381Z,12.70
2022-10-30T02:21:17.787Z,12.66
2022-10-30T02:23:44.268Z,12.70
2022-10-30T02:26:10.632Z,12.73
2022-10-30T02:28:37.204Z,12.74
2022-10-30T02:31:03.733Z,12.71
2022-10-30T02:33:30.107Z,12.71
2022-10-30T02:35:56.427Z,12.78
2022-10-30T02:38:22.802Z,12.80
2022-10-30T02:40:49.141Z,12.83
2022-10-30T02:43:15.521Z,12.83
2022-10-30T02:45:41.841Z,12.89
2022-10-30T02:48:08.187Z,12.88
2022-10-30T02:50:34.540Z,12.83
2022-10-30T02:53:01.400Z,12.87
2022-10-30T02:55:28.008Z,12.75
2022-10-30T02:57:54.476Z,12.94
2022-10-30T03:00:20.955Z,12.82
2022-10-30T03:02:47.382Z,13.16
2022-10-30T03:05:13.890Z,12.88
2022-10-30T03:07:40.229Z,12.87
2022-10-30T03:10:06.895Z,12.85
2022-10-30T03:12:33.251Z,12.82
2022-10-30T03:14:59.579Z,12.81
2022-10-30T03:17:25.963Z,12.78
2022-10-30T03:19:52.352Z,12.79
2022-10-30T03:22:19.810Z,12.55
2022-10-30T03:24:46.157Z,12.55
2022-10-30T03:27:12.574Z,12.68
2022-10-30T03:29:38.964Z,12.70
2022-10-30T03:32:09.637Z,12.66
2022-10-30T03:34:36.157Z,12.69
2022-10-30T03:37:02.617Z,12.69
2022-10-30T03:39:28.962Z,12.66
2022-10-30T03:41:55.411Z,12.84
2022-10-30T03:44:21.781Z,12.65
2022-10-30T03:46:48.148Z,12.65
2022-10-30T03:49:14.477Z,12.60
2022-10-30T03:51:40.821Z,12.58
2022-10-30T03:54:07.200Z,12.50
2022-10-30T03:56:33.593Z,12.44
2022-10-30T03:59:00.023Z,12.56
2022-10-30T04:01:26.468Z,12.52
2022-10-30T04:03:52.869Z,12.40
2022-10-30T04:06:19.258Z,12.25
2022-10-30T04:08:45.773Z,12.35
2022-10-30T04:11:12.255Z,12.28
2022-10-30T04:13:38.999Z,12.08
2022-10-30T04:16:06.716Z,12.12
2022-10-30T04:18:33.152Z,11.92
2022-10-30T04:21:00.530Z,12.00
2022-10-30T04:23:26.877Z,12.10
2022-10-30T04:25:53.247Z,12.25
2022-10-30T04:28:21.190Z,12.37
2022-10-30T04:30:47.987Z,12.44
2022-10-30T04:33:14.755Z,12.48
2022-10-30T04:35:41.976Z,12.48
2022-10-30T04:38:11.053Z,12.52
2022-10-30T04:40:39.273Z,12.52
2022-10-30T04:43:06.273Z,12.66
2022-10-30T04:45:32.987Z,12.55
2022-10-30T04:48:04.737Z,12.59
2022-10-30T04:50:32.340Z,12.58
2022-10-30T04:53:05.591Z,12.60
2022-10-30T04:55:32.712Z,12.59
2022-10-30T04:58:00.873Z,12.53
2022-10-30T05:00:27.571Z,12.49
2022-10-30T05:02:54.027Z,12.57
2022-10-30T05:05:20.743Z,12.63
2022-10-30T05:07:47.096Z,12.65
2022-10-30T05:10:18.319Z,12.60
2022-10-30T05:12:45.693Z,12.66
2022-10-30T05:15:13.428Z,12.67
2022-10-30T05:17:40.399Z,12.61
2022-10-30T05:20:07.875Z,12.64
2022-10-30T05:22:34.243Z,12.68
2022-10-30T05:25:00.658Z,12.65
2022-10-30T05:27:27.036Z,12.53
2022-10-30T05:29:53.355Z,12.61
2022-10-30T05:32:19.719Z,12.69
2022-10-30T05:34:46.091Z,12.66
2022-10-30T05:37:12.438Z,12.66
2022-10-30T05:39:38.826Z,12.46
2022-10-30T05:42:07.555Z,12.41
2022-10-30T05:44:59.134Z,12.56
2022-10-30T05:47:22.517Z,12.60
2022-10-30T05:49:48.855Z,12.58
2022-10-30T05:52:15.308Z,12.62
2022-10-30T05:54:41.656Z,12.63
2022-10-30T05:57:07.994Z,12.60
2022-10-30T05:59:34.422Z,12.59
2022-10-30T06:02:00.944Z,12.61
2022-10-30T06:04:27.329Z,12.51
2022-10-30T06:06:53.790Z,12.50
2022-10-30T06:09:20.117Z,12.35
2022-10-30T06:11:46.561Z,12.41
2022-10-30T06:14:12.896Z,12.43
2022-10-30T06:16:39.454Z,12.45
2022-10-30T06:19:05.812Z,12.41
2022-10-30T06:21:32.140Z,12.41
2022-10-30T06:23:58.953Z,12.43
2022-10-30T06:26:25.416Z,12.29
2022-10-30T06:28:51.808Z,12.43
2022-10-30T06:31:18.251Z,12.46
2022-10-30T06:33:44.683Z,12.48
2022-10-30T06:36:11.017Z,12.45
2022-10-30T06:38:37.406Z,12.38
2022-10-30T06:41:03.978Z,12.37
2022-10-30T06:43:30.461Z,12.44
2022-10-30T06:45:59.950Z,12.45
2022-10-30T06:48:26.349Z,12.49
2022-10-30T06:51:00.371Z,12.44
2022-10-30T06:53:26.777Z,12.39
2022-10-30T06:56:00.966Z,12.47
2022-10-30T06:58:28.393Z,12.49
2022-10-30T07:00:55.150Z,12.59
2022-10-30T07:03:21.941Z,12.52
2022-10-30T07:05:48.386Z,12.55
2022-10-30T07:08:14.721Z,12.51
2022-10-30T07:10:41.119Z,12.60
2022-10-30T07:13:08.604Z,12.62
2022-10-30T07:15:35.815Z,12.61
2022-10-30T07:18:03.734Z,12.67
2022-10-30T07:20:33.335Z,12.68
2022-10-30T07:23:00.647Z,12.60
2022-10-30T07:25:27.402Z,12.70
2022-10-30T07:27:55.136Z,12.60
2022-10-30T07:32:59.850Z,12.27
2022-10-30T07:35:27.453Z,12.21
2022-10-30T07:37:54.093Z,12.34
2022-10-30T07:40:20.629Z,12.20
2022-10-30T07:42:47.443Z,12.26
2022-10-30T07:45:14.092Z,12.31
2022-10-30T07:47:42.099Z,12.54
2022-10-30T07:50:09.661Z,12.62
2022-10-30T07:52:36.280Z,12.59
2022-10-30T07:55:03.311Z,12.62
2022-10-30T07:57:42.936Z,12.66
2022-10-30T08:00:12.934Z,12.72
2022-10-30T08:02:39.710Z,12.78
2022-10-30T08:05:06.866Z,12.79
2022-10-30T08:07:35.013Z,12.57
2022-10-30T08:10:01.463Z,12.89
2022-10-30T08:12:28.248Z,12.91
2022-10-30T08:14:54.880Z,12.91
2022-10-30T08:17:21.557Z,12.96
2022-10-30T08:19:47.997Z,13.08
2022-10-30T08:22:14.737Z,12.98
2022-10-30T08:24:41.189Z,12.84
2022-10-30T08:27:07.918Z,12.72
2022-10-30T08:29:34.844Z,12.90
2022-10-30T08:32:01.499Z,12.95
2022-10-30T08:34:28.031Z,13.22
2022-10-30T08:36:54.430Z,13.32
2022-10-30T08:39:20.985Z,13.23
2022-10-30T08:41:47.430Z,13.33
2022-10-30T08:44:14.238Z,13.43
2022-10-30T08:46:40.588Z,13.46
2022-10-30T08:49:06.942Z,13.48
2022-10-30T08:51:34.871Z,13.47
2022-10-30T08:54:01.625Z,13.68
2022-10-30T08:56:28.115Z,13.95
2022-10-30T08:58:54.611Z,14.08
2022-10-30T09:01:21.085Z,14.17
2022-10-30T09:03:47.802Z,14.20
2022-10-30T09:06:14.173Z,14.12
2022-10-30T09:08:40.540Z,14.08
2022-10-30T09:11:06.973Z,14.23
2022-10-30T09:13:33.510Z,14.31
2022-10-30T09:16:01.426Z,14.39
2022-10-30T09:18:28.116Z,14.38
2022-10-30T09:20:54.453Z,14.27
2022-10-30T09:23:20.942Z,14.50
2022-10-30T09:25:47.440Z,14.87
2022-10-30T09:28:13.859Z,14.66
2022-10-30T09:30:40.190Z,14.70
2022-10-30T09:33:06.607Z,14.64
2022-10-30T09:35:33.310Z,14.70
2022-10-30T09:37:59.948Z,14.73
2022-10-30T09:41:00.051Z,15.09
2022-10-30T09:43:53.998Z,15.05
2022-10-30T09:47:08.677Z,14.98
2022-10-30T09:50:04.093Z,15.08
2022-10-30T09:52:59.670Z,15.26
2022-10-30T09:55:47.725Z,15.11
2022-10-30T09:58:46.975Z,14.82
2022-10-30T10:01:38.607Z,15.13
2022-10-30T10:04:28.915Z,14.89
2022-10-30T10:07:02.017Z,15.10
2022-10-30T10:09:31.152Z,15.37
2022-10-30T10:12:24.505Z,15.53
2022-10-30T10:14:51.934Z,15.85
2022-10-30T10:17:28.038Z,16.04
2022-10-30T10:20:03.461Z,16.18
2022-10-30T10:22:40.999Z,16.49
2022-10-30T10:25:13.227Z,16.52
2022-10-30T10:27:56.119Z,16.80
2022-10-30T10:30:24.505Z,16.88
2022-10-30T10:33:08.154Z,16.85
2022-10-30T10:35:59.158Z,17.09
2022-10-30T10:38:38.139Z,17.31
2022-10-30T10:41:19.111Z,17.21
2022-10-30T10:44:04.247Z,17.34
2022-10-30T10:47:07.489Z,17.44
2022-10-30T10:49:57.992Z,17.45
2022-10-30T10:52:33.780Z,17.54
2022-10-30T10:55:04.907Z,17.80
2022-10-30T10:57:38.019Z,17.80
2022-10-30T11:00:19.444Z,17.87
2022-10-30T11:03:14.556Z,17.83
2022-10-30T11:05:51.275Z,18.08
2022-10-30T11:08:27.967Z,18.14
2022-10-30T11:10:59.768Z,18.05
2022-10-30T11:13:30.761Z,18.07
2022-10-30T11:16:06.703Z,18.21
2022-10-30T11:18:34.717Z,18.30
2022-10-30T11:21:11.387Z,18.58
2022-10-30T11:23:40.880Z,18.68
2022-10-30T11:26:22.358Z,18.59
2022-10-30T11:28:49.989Z,18.85
2022-10-30T11:31:30.177Z,19.00
2022-10-30T11:33:56.507Z,19.03
2022-10-30T11:36:24.904Z,19.18
2022-10-30T11:38:52.488Z,19.17
2022-10-30T11:41:20.667Z,19.20
2022-10-30T11:43:48.959Z,19.40
2022-10-30T11:46:22.486Z,18.91
2022-10-30T11:48:54.633Z,19.28
2022-10-30T11:51:34.319Z,19.29
2022-10-30T11:54:01.918Z,19.41
2022-10-30T11:56:28.370Z,19.55
2022-10-30T11:58:58.517Z,19.52
2022-10-30T12:01:30.664Z,19.69
2022-10-30T12:04:12.783Z,19.71
2022-10-30T12:06:39.239Z,19.73
2022-10-30T12:09:19.705Z,20.04
2022-10-30T12:11:46.661Z,19.83
2022-10-30T12:14:20.204Z,19.91
2022-10-30T12:16:49.542Z,19.99
2022-10-30T12:19:17.812Z,19.91
2022-10-30T12:21:47.436Z,19.88
2022-10-30T12:24:35.749Z,19.99
2022-10-30T12:27:09.880Z,19.99
2022-10-30T12:30:08.007Z,20.42
2022-10-30T12:32:52.259Z,20.15
2022-10-30T12:35:39.300Z,20.48
2022-10-30T12:38:50.090Z,20.41
2022-10-30T12:41:28.609Z,20.51
2022-10-30T12:44:27.626Z,20.46
2022-10-30T12:47:03.319Z,20.59
2022-10-30T12:49:56.492Z,20.55
2022-10-30T12:52:36.735Z,20.49
2022-10-30T12:55:15.017Z,20.42
2022-10-30T12:57:53.500Z,20.32
2022-10-30T13:00:19.871Z,20.22
2022-10-30T13:03:28.764Z,20.23
2022-10-30T13:05:59.758Z,20.18
2022-10-30T13:08:44.965Z,20.36
2022-10-30T13:11:27.847Z,20.38
2022-10-30T13:13:55.850Z,20.66
2022-10-30T13:16:27.331Z,20.61
2022-10-30T13:18:57.137Z,20.58
2022-10-30T13:22:06.614Z,20.56
2022-10-30T13:24:46.704Z,20.68
2022-10-30T13:27:41.825Z,20.72
2022-10-30T13:30:22.462Z,20.79
2022-10-30T13:33:07.697Z,20.84
2022-10-30T13:35:56.484Z,20.84
2022-10-30T13:38:44.469Z,20.96
2022-10-30T13:41:19.860Z,20.92
2022-10-30T13:44:15.250Z,20.97
2022-10-30T13:47:07.862Z,20.89
2022-10-30T13:49:55.673Z,20.92
2022-10-30T13:52:22.942Z,20.94
2022-10-30T13:55:14.172Z,20.98
2022-10-30T13:57:52.792Z,20.93
2022-10-30T14:00:43.521Z,21.09
2022-10-30T14:03:22.153Z,20.89
2022-10-30T14:06:08.162Z,21.00
2022-10-30T14:08:49.807Z,20.99
2022-10-30T14:11:16.208Z,20.77
2022-10-30T14:13:52.852Z,20.67
2022-10-30T14:16:42.617Z,20.64
2022-10-30T14:19:16.840Z,20.68
2022-10-30T14:21:57.143Z,20.78
2022-10-30T14:24:29.187Z,20.68
2022-10-30T14:27:11.139Z,20.61
2022-10-30T14:29:43.758Z,20.58
2022-10-30T14:32:16.174Z,20.55
2022-10-30T14:34:51.575Z,20.39
2022-10-30T14:37:37.875Z,20.45
2022-10-30T14:40:41.811Z,20.45
2022-10-30T14:43:17.404Z,20.50
2022-10-30T14:45:59.535Z,20.58
2022-10-30T14:48:45.866Z,20.50
2022-10-30T14:51:31.755Z,20.60
2022-10-30T14:54:25.172Z,20.45
2022-10-30T14:56:57.511Z,20.47
2022-10-30T14:59:37.234Z,20.48
2022-10-30T15:02:16.121Z,20.49
2022-10-30T15:08:26.713Z,20.37
2022-10-30T15:11:11.791Z,20.32
2022-10-30T15:16:52.421Z,20.17
2022-10-30T15:19:21.449Z,20.16
2022-10-30T15:21:52.261Z,19.87
2022-10-30T15:24:21.435Z,19.65
2022-10-30T15:26:52.281Z,19.62
2022-10-30T15:29:23.657Z,19.51
2022-10-30T15:32:05.264Z,19.39
2022-10-30T15:34:33.302Z,19.28
2022-10-30T15:36:59.638Z,19.19
2022-10-30T15:39:26.039Z,19.03
2022-10-30T15:41:58.160Z,18.79
2022-10-30T15:44:27.657Z,18.45
2022-10-30T15:46:56.863Z,18.39
2022-10-30T15:49:35.756Z,18.44
2022-10-30T15:52:23.840Z,18.30
2022-10-30T15:55:03.202Z,18.27
2022-10-30T15:58:03.856Z,18.21
2022-10-30T16:00:34.676Z,18.10
2022-10-30T16:03:01.452Z,18.00
2022-10-30T16:05:28.243Z,18.00
2022-10-30T16:07:59.738Z,17.92
2022-10-30T16:10:27.985Z,17.91
2022-10-30T16:12:57.066Z,17.87
2022-10-30T16:15:39.234Z,17.79
2022-10-30T16:18:08.702Z,17.59
2022-10-30T16:20:36.043Z,17.32
2022-10-30T16:23:04.348Z,17.19
2022-10-30T16:25:32.591Z,17.09
2022-10-30T16:27:59.233Z,16.98
2022-10-30T16:30:29.338Z,16.94
2022-10-30T16:32:56.203Z,17.09
2022-10-30T16:35:24.848Z,16.63
2022-10-30T16:37:51.616Z,16.35
2022-10-30T16:40:23.740Z,16.18
2022-10-30T16:43:03.289Z,16.11
2022-10-30T16:45:33.827Z,16.08
2022-10-30T16:48:09.204Z,16.20
2022-10-30T16:50:38.146Z,15.89
2022-10-30T16:53:17.061Z,15.91
2022-10-30T16:55:43.677Z,15.78
2022-10-30T16:58:13.416Z,15.76
2022-10-30T17:00:42.051Z,15.74
2022-10-30T17:03:11.441Z,15.74
2022-10-30T17:05:38.615Z,15.66
2022-10-30T17:08:26.528Z,15.51
2022-10-30T17:10:55.830Z,15.55
2022-10-30T17:13:34.239Z,15.41
2022-10-30T17:16:18.843Z,15.18
2022-10-30T17:18:46.697Z,15.25
2022-10-30T17:21:16.717Z,15.33
2022-10-30T17:23:48.500Z,15.12
2022-10-30T17:26:16.095Z,15.09
2022-10-30T17:28:43.027Z,15.10
2022-10-30T17:31:20.108Z,14.94
2022-10-30T17:33:47.149Z,14.91
2022-10-30T17:36:13.775Z,15.02
2022-10-30T17:38:40.487Z,14.84
2022-10-30T17:41:08.202Z,14.61
2022-10-30T17:43:48.904Z,14.65
2022-10-30T17:46:20.235Z,14.51
2022-10-30T17:48:47.067Z,14.37
2022-10-30T17:51:14.704Z,14.35
2022-10-30T17:53:41.835Z,14.31
2022-10-30T17:56:11.038Z,14.22
2022-10-30T17:58:37.553Z,14.33
2022-10-30T18:01:04.200Z,14.14
2022-10-30T18:03:30.613Z,14.11
2022-10-30T18:05:59.602Z,14.14
2022-10-30T18:08:26.019Z,14.13
2022-10-30T18:10:52.389Z,14.29
2022-10-30T18:13:19.995Z,14.31
2022-10-30T18:15:54.335Z,14.27
2022-10-30T18:18:20.758Z,14.23
2022-10-30T18:20:47.087Z,14.36
2022-10-30T18:23:46.732Z,14.26
2022-10-30T18:26:06.724Z,14.17
2022-10-30T18:28:33.151Z,13.90
2022-10-30T18:31:01.068Z,13.81
2022-10-30T18:33:27.462Z,13.86
2022-10-30T18:35:54.504Z,13.73
2022-10-30T18:38:20.908Z,13.96
2022-10-30T18:40:47.864Z,13.93
2022-10-30T18:43:14.350Z,13.84
2022-10-30T18:45:41.793Z,13.79
2022-10-30T18:48:08.785Z,13.94
2022-10-30T18:50:37.633Z,13.71
2022-10-30T18:53:10.534Z,13.75
2022-10-30T18:55:39.591Z,13.66
2022-10-30T18:58:07.569Z,13.69
2022-10-30T19:00:58.085Z,13.71
2022-10-30T19:03:21.977Z,13.64
2022-10-30T19:05:50.762Z,13.48
2022-10-30T19:08:17.218Z,13.59
2022-10-30T19:10:45.868Z,13.55
2022-10-30T19:13:14.772Z,13.57
2022-10-30T19:15:44.384Z,13.43
2022-10-30T19:18:13.246Z,13.51
2022-10-30T19:21:02.772Z,13.64
2022-10-30T19:23:26.097Z,13.44
2022-10-30T19:25:52.661Z,13.29
2022-10-30T19:28:20.663Z,13.20
2022-10-30T19:30:52.817Z,13.11
2022-10-30T19:33:21.715Z,13.16
2022-10-30T19:36:00.858Z,13.22
2022-10-30T19:38:28.027Z,13.11
2022-10-30T19:40:54.600Z,13.19
2022-10-30T19:43:21.034Z,12.97
2022-10-30T19:45:51.259Z,13.02
2022-10-30T19:48:34.394Z,12.93
2022-10-30T19:51:09.221Z,12.86
2022-10-30T19:53:35.594Z,12.84
2022-10-30T19:56:02.033Z,12.75
2022-10-30T19:58:28.467Z,12.75
2022-10-30T20:00:55.498Z,12.65
2022-10-30T20:03:21.910Z,12.58
2022-10-30T20:05:52.730Z,12.52
2022-10-30T20:08:21.525Z,12.41
2022-10-30T20:10:53.806Z,12.54
2022-10-30T20:13:21.463Z,12.43
2022-10-30T20:15:47.880Z,12.44
2022-10-30T20:18:20.542Z,12.35
2022-10-30T20:20:49.246Z,12.39
2022-10-30T20:23:16.091Z,12.26
2022-10-30T20:25:43.072Z,12.27
2022-10-30T20:28:28.831Z,12.22
2022-10-30T20:30:55.783Z,12.02
2022-10-30T20:33:23.241Z,12.01
2022-10-30T20:35:50.579Z,11.92
2022-10-30T20:38:20.455Z,11.82
2022-10-30T20:40:48.265Z,11.99
2022-10-30T20:43:19.880Z,11.82
2022-10-30T20:45:47.393Z,11.92
2022-10-30T20:48:13.916Z,11.85
2022-10-30T20:50:41.226Z,11.95
2022-10-30T20:53:12.047Z,11.88
2022-10-30T20:55:38.623Z,11.80
2022-10-30T20:58:06.076Z,11.82
2022-10-30T21:00:32.951Z,11.75
2022-10-30T21:03:02.265Z,11.69
2022-10-30T21:05:43.396Z,11.63
2022-10-30T21:08:10.732Z,11.53
2022-10-30T21:10:38.268Z,11.57
2022-10-30T21:13:08.503Z,11.50
2022-10-30T21:15:39.475Z,11.60
2022-10-30T21:18:06.297Z,11.47
2022-10-30T21:20:32.675Z,11.37
2022-10-30T21:22:59.072Z,11.29
2022-10-30T21:25:25.439Z,11.30
2022-10-30T21:27:51.804Z,11.36
2022-10-30T21:30:18.266Z,11.28
2022-10-30T21:32:44.618Z,11.19
2022-10-30T21:35:10.956Z,11.35
2022-10-30T21:37:37.696Z,11.35
2022-10-30T21:40:04.917Z,11.21
2022-10-30T21:42:31.617Z,11.51
2022-10-30T21:44:58.084Z,11.54
2022-10-30T21:47:24.432Z,11.42
2022-10-30T21:49:50.912Z,11.51
2022-10-30T21:52:17.271Z,11.39
2022-10-30T21:54:43.730Z,11.45
2022-10-30T21:59:37.374Z,11.42
2022-10-30T22:02:03.747Z,11.20
2022-10-30T22:04:31.103Z,11.18
2022-10-30T22:06:57.461Z,11.35
2022-10-30T22:09:23.893Z,11.29
2022-10-30T22:11:50.261Z,11.36
2022-10-30T22:14:16.872Z,11.31
2022-10-30T22:16:43.295Z,11.42
2022-10-30T22:19:10.576Z,11.35
2022-10-30T22:21:37.287Z,11.34
2022-10-30T22:24:04.637Z,11.38
2022-10-30T22:26:31.621Z,11.39
2022-10-30T22:28:59.837Z,11.37
2022-10-30T22:31:28.726Z,11.22
2022-10-30T22:33:55.327Z,11.12
2022-10-30T22:36:25.171Z,11.20
2022-10-30T22:39:00.491Z,11.04
2022-10-30T22:41:31.349Z,10.97
2022-10-30T22:44:02.643Z,10.92
2022-10-30T22:46:30.682Z,10.92
2022-10-30T22:48:57.892Z,10.96
2022-10-30T22:51:25.355Z,10.89
2022-10-30T22:54:00.628Z,10.83
2022-10-30T22:56:29.812Z,10.91
2022-10-30T22:58:56.486Z,10.76
2022-10-30T23:01:26.987Z,10.66
2022-10-30T23:03:56.205Z,10.71
2022-10-30T23:06:23.168Z,10.73
2022-10-30T23:08:52.057Z,10.84
2022-10-30T23:11:18.446Z,10.94
2022-10-30T23:13:47.452Z,10.96
2022-10-30T23:16:17.273Z,11.01
2022-10-30T23:18:44.375Z,11.08
2022-10-30T23:21:17.890Z,11.01
2022-10-30T23:23:44.831Z,10.80
2022-10-30T23:26:23.096Z,10.87
2022-10-30T23:28:51.861Z,10.77
2022-10-30T23:31:22.145Z,10.80
2022-10-30T23:33:50.075Z,10.74
2022-10-30T23:36:16.894Z,10.89
2022-10-30T23:38:43.479Z,10.89
2022-10-30T23:41:10.431Z,10.81
2022-10-30T23:43:36.768Z,10.82
2022-10-30T23:46:03.143Z,10.64
2022-10-30T23:48:29.498Z,10.82
2022-10-30T23:50:55.829Z,10.94
2022-10-30T23:53:22.180Z,11.03
2022-10-30T23:55:55.317Z,10.93
2022-10-30T23:58:21.749Z,10.88
